Terminal Aerodrome Forecast
Issued by NWS Cleveland, OH

Home | Current Version | Previous Version | Text Only | Print | Product List | Glossary Off
Versions: 1 2 3 4 5 6 7 8 9 10 11 12 13 14 15 16 17 18 19

000
FTUS41 KCLE 010957 AAA
TAFMFD
TAF AMD
KMFD 010957Z 0110/0206 28005KT 6SM BR SCT006 BKN012
      TEMPO 0110/0113 3SM BR BKN006
     FM011400 29008KT P6SM SCT045 BKN250
      TEMPO 0114/0116 BKN045
     FM011600 30008KT P6SM SCT250
     FM020200 34002KT P6SM SKC=

USA.gov is the U.S. government's official web portal to all federal, state and local government web resources and services.